sensor_id;sensor_type;location;lat;lon;timestamp;P1;durP1;ratioP1;P2;durP2;ratioP2
12625;SDS011;6378;42.684;23.372;2022-08-19T00:01:19;13.23;;;8.90;;
12625;SDS011;6378;42.684;23.372;2022-08-19T00:03:45;9.63;;;8.63;;
12625;SDS011;6378;42.684;23.372;2022-08-19T00:06:11;9.65;;;8.80;;
12625;SDS011;6378;42.684;23.372;2022-08-19T00:08:37;10.13;;;8.32;;
12625;SDS011;6378;42.684;23.372;2022-08-19T00:11:02;9.57;;;8.52;;
12625;SDS011;6378;42.684;23.372;2022-08-19T00:13:28;9.25;;;8.43;;
12625;SDS011;6378;42.684;23.372;2022-08-19T00:15:54;9.43;;;8.52;;
12625;SDS011;6378;42.684;23.372;2022-08-19T00:18:20;10.57;;;9.40;;
12625;SDS011;6378;42.684;23.372;2022-08-19T00:20:46;11.50;;;10.23;;
12625;SDS011;6378;42.684;23.372;2022-08-19T00:23:11;10.13;;;9.23;;
12625;SDS011;6378;42.684;23.372;2022-08-19T00:25:37;11.20;;;10.00;;
12625;SDS011;6378;42.684;23.372;2022-08-19T00:28:02;11.05;;;9.95;;
12625;SDS011;6378;42.684;23.372;2022-08-19T00:30:29;11.70;;;10.05;;
12625;SDS011;6378;42.684;23.372;2022-08-19T00:32:55;12.35;;;11.02;;
12625;SDS011;6378;42.684;23.372;2022-08-19T00:35:21;13.13;;;11.82;;
12625;SDS011;6378;42.684;23.372;2022-08-19T00:37:47;12.38;;;11.35;;
12625;SDS011;6378;42.684;23.372;2022-08-19T00:40:14;13.00;;;11.32;;
12625;SDS011;6378;42.684;23.372;2022-08-19T00:42:40;13.80;;;11.13;;
12625;SDS011;6378;42.684;23.372;2022-08-19T00:45:11;12.85;;;11.57;;
12625;SDS011;6378;42.684;23.372;2022-08-19T00:47:39;12.82;;;11.52;;
12625;SDS011;6378;42.684;23.372;2022-08-19T00:50:05;11.38;;;10.15;;
12625;SDS011;6378;42.684;23.372;2022-08-19T00:52:33;12.27;;;10.90;;
12625;SDS011;6378;42.684;23.372;2022-08-19T00:55:03;11.88;;;10.55;;
12625;SDS011;6378;42.684;23.372;2022-08-19T00:57:34;10.57;;;9.68;;
12625;SDS011;6378;42.684;23.372;2022-08-19T01:00:05;11.07;;;9.82;;
12625;SDS011;6378;42.684;23.372;2022-08-19T01:02:35;11.35;;;10.35;;
12625;SDS011;6378;42.684;23.372;2022-08-19T01:05:02;11.35;;;10.32;;
12625;SDS011;6378;42.684;23.372;2022-08-19T01:07:35;10.85;;;9.75;;
12625;SDS011;6378;42.684;23.372;2022-08-19T01:10:03;11.38;;;10.18;;
12625;SDS011;6378;42.684;23.372;2022-08-19T01:12:30;11.77;;;9.95;;
12625;SDS011;6378;42.684;23.372;2022-08-19T01:14:56;11.20;;;10.20;;
12625;SDS011;6378;42.684;23.372;2022-08-19T01:17:23;10.45;;;9.15;;
12625;SDS011;6378;42.684;23.372;2022-08-19T01:19:48;14.07;;;9.32;;
12625;SDS011;6378;42.684;23.372;2022-08-19T01:24:46;10.30;;;9.30;;
12625;SDS011;6378;42.684;23.372;2022-08-19T01:27:12;10.10;;;9.10;;
12625;SDS011;6378;42.684;23.372;2022-08-19T01:29:39;10.40;;;9.40;;
12625;SDS011;6378;42.684;23.372;2022-08-19T01:32:07;10.23;;;9.32;;
12625;SDS011;6378;42.684;23.372;2022-08-19T01:34:33;10.77;;;9.77;;
12625;SDS011;6378;42.684;23.372;2022-08-19T01:36:59;10.02;;;9.10;;
12625;SDS011;6378;42.684;23.372;2022-08-19T01:39:31;11.10;;;9.98;;
12625;SDS011;6378;42.684;23.372;2022-08-19T01:41:56;10.85;;;9.80;;
12625;SDS011;6378;42.684;23.372;2022-08-19T01:44:22;10.60;;;9.55;;
12625;SDS011;6378;42.684;23.372;2022-08-19T01:46:49;10.23;;;9.23;;
12625;SDS011;6378;42.684;23.372;2022-08-19T01:49:17;12.13;;;9.85;;
12625;SDS011;6378;42.684;23.372;2022-08-19T01:51:45;10.63;;;9.57;;
12625;SDS011;6378;42.684;23.372;2022-08-19T01:54:11;9.93;;;8.82;;
12625;SDS011;6378;42.684;23.372;2022-08-19T01:56:38;11.55;;;10.43;;
12625;SDS011;6378;42.684;23.372;2022-08-19T01:59:05;10.30;;;9.30;;
12625;SDS011;6378;42.684;23.372;2022-08-19T02:01:35;10.40;;;9.43;;
12625;SDS011;6378;42.684;23.372;2022-08-19T02:04:00;11.30;;;10.20;;
12625;SDS011;6378;42.684;23.372;2022-08-19T02:06:26;11.68;;;10.27;;
12625;SDS011;6378;42.684;23.372;2022-08-19T02:08:52;12.00;;;10.85;;
12625;SDS011;6378;42.684;23.372;2022-08-19T02:11:20;22.23;;;19.77;;
12625;SDS011;6378;42.684;23.372;2022-08-19T02:13:47;12.52;;;11.30;;
12625;SDS011;6378;42.684;23.372;2022-08-19T02:16:14;15.23;;;13.63;;
12625;SDS011;6378;42.684;23.372;2022-08-19T02:18:41;12.35;;;10.95;;
12625;SDS011;6378;42.684;23.372;2022-08-19T02:21:06;13.43;;;11.20;;
12625;SDS011;6378;42.684;23.372;2022-08-19T02:23:32;25.63;;;22.52;;
12625;SDS011;6378;42.684;23.372;2022-08-19T02:25:57;12.95;;;10.32;;
12625;SDS011;6378;42.684;23.372;2022-08-19T02:28:23;11.43;;;9.32;;
12625;SDS011;6378;42.684;23.372;2022-08-19T02:30:48;11.88;;;10.20;;
12625;SDS011;6378;42.684;23.372;2022-08-19T02:33:14;20.25;;;17.73;;
12625;SDS011;6378;42.684;23.372;2022-08-19T02:35:46;11.32;;;10.13;;
12625;SDS011;6378;42.684;23.372;2022-08-19T02:38:12;21.73;;;18.70;;
12625;SDS011;6378;42.684;23.372;2022-08-19T02:40:51;21.55;;;18.17;;
12625;SDS011;6378;42.684;23.372;2022-08-19T02:43:19;13.80;;;10.77;;
12625;SDS011;6378;42.684;23.372;2022-08-19T02:45:45;14.60;;;10.98;;
12625;SDS011;6378;42.684;23.372;2022-08-19T02:48:12;10.98;;;9.88;;
12625;SDS011;6378;42.684;23.372;2022-08-19T02:50:39;11.57;;;10.40;;
12625;SDS011;6378;42.684;23.372;2022-08-19T02:53:05;12.10;;;10.90;;
12625;SDS011;6378;42.684;23.372;2022-08-19T02:55:32;14.98;;;12.48;;
12625;SDS011;6378;42.684;23.372;2022-08-19T02:57:57;14.82;;;13.43;;
12625;SDS011;6378;42.684;23.372;2022-08-19T03:00:24;13.07;;;11.73;;
12625;SDS011;6378;42.684;23.372;2022-08-19T03:02:51;12.23;;;10.75;;
12625;SDS011;6378;42.684;23.372;2022-08-19T03:05:17;13.93;;;11.05;;
12625;SDS011;6378;42.684;23.372;2022-08-19T03:07:42;16.25;;;11.13;;
12625;SDS011;6378;42.684;23.372;2022-08-19T03:10:08;12.43;;;11.13;;
12625;SDS011;6378;42.684;23.372;2022-08-19T03:12:37;12.48;;;10.75;;
12625;SDS011;6378;42.684;23.372;2022-08-19T03:15:07;12.82;;;11.38;;
12625;SDS011;6378;42.684;23.372;2022-08-19T03:17:34;11.57;;;10.40;;
12625;SDS011;6378;42.684;23.372;2022-08-19T03:20:00;13.85;;;10.50;;
12625;SDS011;6378;42.684;23.372;2022-08-19T03:22:26;14.23;;;12.00;;
12625;SDS011;6378;42.684;23.372;2022-08-19T03:24:51;12.93;;;11.15;;
12625;SDS011;6378;42.684;23.372;2022-08-19T03:27:17;16.75;;;11.48;;
12625;SDS011;6378;42.684;23.372;2022-08-19T03:29:42;14.15;;;11.23;;
12625;SDS011;6378;42.684;23.372;2022-08-19T03:32:08;14.10;;;11.55;;
12625;SDS011;6378;42.684;23.372;2022-08-19T03:34:36;16.50;;;12.98;;
12625;SDS011;6378;42.684;23.372;2022-08-19T03:37:07;14.68;;;11.27;;
12625;SDS011;6378;42.684;23.372;2022-08-19T03:39:35;14.82;;;12.23;;
12625;SDS011;6378;42.684;23.372;2022-08-19T03:42:02;16.17;;;12.23;;
12625;SDS011;6378;42.684;23.372;2022-08-19T03:44:28;12.32;;;11.13;;
12625;SDS011;6378;42.684;23.372;2022-08-19T03:46:56;13.25;;;10.98;;
12625;SDS011;6378;42.684;23.372;2022-08-19T03:49:23;13.70;;;11.32;;
12625;SDS011;6378;42.684;23.372;2022-08-19T03:51:52;15.20;;;10.32;;
12625;SDS011;6378;42.684;23.372;2022-08-19T03:54:20;14.55;;;11.88;;
12625;SDS011;6378;42.684;23.372;2022-08-19T03:56:48;16.10;;;11.23;;
12625;SDS011;6378;42.684;23.372;2022-08-19T03:59:17;13.63;;;11.07;;
12625;SDS011;6378;42.684;23.372;2022-08-19T04:01:47;11.15;;;10.05;;
12625;SDS011;6378;42.684;23.372;2022-08-19T04:04:12;13.93;;;11.98;;
12625;SDS011;6378;42.684;23.372;2022-08-19T04:06:38;13.65;;;10.65;;
12625;SDS011;6378;42.684;23.372;2022-08-19T04:09:06;13.35;;;11.75;;
12625;SDS011;6378;42.684;23.372;2022-08-19T04:11:34;13.15;;;10.52;;
12625;SDS011;6378;42.684;23.372;2022-08-19T04:14:05;13.50;;;11.27;;
12625;SDS011;6378;42.684;23.372;2022-08-19T04:16:31;20.67;;;17.42;;
12625;SDS011;6378;42.684;23.372;2022-08-19T04:18:58;31.23;;;24.23;;
12625;SDS011;6378;42.684;23.372;2022-08-19T04:21:26;15.45;;;11.43;;
12625;SDS011;6378;42.684;23.372;2022-08-19T04:23:53;17.33;;;14.80;;
12625;SDS011;6378;42.684;23.372;2022-08-19T04:26:20;38.05;;;27.58;;
12625;SDS011;6378;42.684;23.372;2022-08-19T04:28:48;17.95;;;11.88;;
12625;SDS011;6378;42.684;23.372;2022-08-19T04:31:16;26.92;;;19.90;;
12625;SDS011;6378;42.684;23.372;2022-08-19T04:33:56;19.55;;;13.55;;
12625;SDS011;6378;42.684;23.372;2022-08-19T04:36:24;19.88;;;14.35;;
12625;SDS011;6378;42.684;23.372;2022-08-19T04:39:03;23.83;;;17.00;;
12625;SDS011;6378;42.684;23.372;2022-08-19T04:41:30;20.85;;;12.40;;
12625;SDS011;6378;42.684;23.372;2022-08-19T04:44:15;18.00;;;12.25;;
12625;SDS011;6378;42.684;23.372;2022-08-19T04:46:43;22.67;;;13.02;;
12625;SDS011;6378;42.684;23.372;2022-08-19T04:49:09;17.98;;;13.35;;
12625;SDS011;6378;42.684;23.372;2022-08-19T04:51:35;23.45;;;13.18;;
12625;SDS011;6378;42.684;23.372;2022-08-19T04:54:01;20.48;;;14.57;;
12625;SDS011;6378;42.684;23.372;2022-08-19T04:56:28;20.02;;;13.25;;
12625;SDS011;6378;42.684;23.372;2022-08-19T04:58:55;13.63;;;9.95;;
12625;SDS011;6378;42.684;23.372;2022-08-19T05:01:26;11.43;;;10.15;;
12625;SDS011;6378;42.684;23.372;2022-08-19T05:03:53;11.68;;;9.90;;
12625;SDS011;6378;42.684;23.372;2022-08-19T05:06:20;16.60;;;11.18;;
12625;SDS011;6378;42.684;23.372;2022-08-19T05:08:46;19.33;;;15.85;;
12625;SDS011;6378;42.684;23.372;2022-08-19T05:11:20;15.93;;;11.50;;
12625;SDS011;6378;42.684;23.372;2022-08-19T05:13:48;15.18;;;12.95;;
12625;SDS011;6378;42.684;23.372;2022-08-19T05:16:15;14.50;;;11.82;;
12625;SDS011;6378;42.684;23.372;2022-08-19T05:18:42;21.63;;;15.13;;
12625;SDS011;6378;42.684;23.372;2022-08-19T05:21:27;22.67;;;12.75;;
12625;SDS011;6378;42.684;23.372;2022-08-19T05:24:12;21.08;;;13.02;;
12625;SDS011;6378;42.684;23.372;2022-08-19T05:26:42;15.00;;;12.13;;
12625;SDS011;6378;42.684;23.372;2022-08-19T05:29:11;14.48;;;12.23;;
12625;SDS011;6378;42.684;23.372;2022-08-19T05:31:38;15.18;;;12.07;;
12625;SDS011;6378;42.684;23.372;2022-08-19T05:34:03;13.70;;;11.13;;
12625;SDS011;6378;42.684;23.372;2022-08-19T05:36:34;20.80;;;10.98;;
12625;SDS011;6378;42.684;23.372;2022-08-19T05:39:06;15.48;;;9.95;;
12625;SDS011;6378;42.684;23.372;2022-08-19T05:41:32;12.02;;;9.80;;
12625;SDS011;6378;42.684;23.372;2022-08-19T05:44:01;12.10;;;9.90;;
12625;SDS011;6378;42.684;23.372;2022-08-19T05:46:32;15.15;;;9.43;;
12625;SDS011;6378;42.684;23.372;2022-08-19T05:48:58;16.02;;;12.05;;
12625;SDS011;6378;42.684;23.372;2022-08-19T05:51:23;11.45;;;10.18;;
12625;SDS011;6378;42.684;23.372;2022-08-19T05:53:50;12.73;;;9.48;;
12625;SDS011;6378;42.684;23.372;2022-08-19T05:56:15;13.30;;;9.27;;
12625;SDS011;6378;42.684;23.372;2022-08-19T05:58:42;12.82;;;9.63;;
12625;SDS011;6378;42.684;23.372;2022-08-19T06:01:11;13.27;;;10.13;;
12625;SDS011;6378;42.684;23.372;2022-08-19T06:03:38;11.25;;;9.63;;
12625;SDS011;6378;42.684;23.372;2022-08-19T06:06:04;14.38;;;9.50;;
12625;SDS011;6378;42.684;23.372;2022-08-19T06:08:30;11.20;;;10.13;;
12625;SDS011;6378;42.684;23.372;2022-08-19T06:10:56;12.18;;;10.23;;
12625;SDS011;6378;42.684;23.372;2022-08-19T06:13:22;11.63;;;10.02;;
12625;SDS011;6378;42.684;23.372;2022-08-19T06:15:50;13.52;;;9.77;;
12625;SDS011;6378;42.684;23.372;2022-08-19T06:18:16;11.60;;;10.25;;
12625;SDS011;6378;42.684;23.372;2022-08-19T06:20:42;11.07;;;10.02;;
12625;SDS011;6378;42.684;23.372;2022-08-19T06:23:07;11.30;;;9.23;;
12625;SDS011;6378;42.684;23.372;2022-08-19T06:25:34;11.05;;;9.95;;
12625;SDS011;6378;42.684;23.372;2022-08-19T06:28:00;13.07;;;10.35;;
12625;SDS011;6378;42.684;23.372;2022-08-19T06:30:27;14.25;;;9.57;;
12625;SDS011;6378;42.684;23.372;2022-08-19T06:32:53;11.38;;;9.77;;
12625;SDS011;6378;42.684;23.372;2022-08-19T06:35:18;13.95;;;10.15;;
12625;SDS011;6378;42.684;23.372;2022-08-19T06:37:44;14.88;;;9.85;;
12625;SDS011;6378;42.684;23.372;2022-08-19T06:40:09;10.07;;;9.13;;
12625;SDS011;6378;42.684;23.372;2022-08-19T06:42:37;10.50;;;9.40;;
12625;SDS011;6378;42.684;23.372;2022-08-19T06:45:03;10.98;;;9.32;;
12625;SDS011;6378;42.684;23.372;2022-08-19T06:47:30;13.95;;;9.85;;
12625;SDS011;6378;42.684;23.372;2022-08-19T06:49:57;11.25;;;9.43;;
12625;SDS011;6378;42.684;23.372;2022-08-19T06:52:30;10.75;;;9.60;;
12625;SDS011;6378;42.684;23.372;2022-08-19T06:54:57;11.75;;;9.02;;
12625;SDS011;6378;42.684;23.372;2022-08-19T06:57:24;14.00;;;10.30;;
12625;SDS011;6378;42.684;23.372;2022-08-19T06:59:49;10.80;;;9.88;;
12625;SDS011;6378;42.684;23.372;2022-08-19T07:02:15;10.30;;;9.25;;
12625;SDS011;6378;42.684;23.372;2022-08-19T07:04:40;11.70;;;9.88;;
12625;SDS011;6378;42.684;23.372;2022-08-19T07:07:10;13.00;;;9.50;;
12625;SDS011;6378;42.684;23.372;2022-08-19T07:09:52;12.68;;;9.32;;
12625;SDS011;6378;42.684;23.372;2022-08-19T07:15:42;11.75;;;8.68;;
12625;SDS011;6378;42.684;23.372;2022-08-19T07:18:10;12.75;;;8.63;;
12625;SDS011;6378;42.684;23.372;2022-08-19T07:24:41;10.77;;;9.18;;
12625;SDS011;6378;42.684;23.372;2022-08-19T07:30:38;10.93;;;9.00;;
12625;SDS011;6378;42.684;23.372;2022-08-19T07:33:21;12.52;;;8.98;;
12625;SDS011;6378;42.684;23.372;2022-08-19T07:36:05;10.80;;;8.45;;
12625;SDS011;6378;42.684;23.372;2022-08-19T07:45:07;11.82;;;9.63;;
12625;SDS011;6378;42.684;23.372;2022-08-19T07:47:39;11.18;;;9.45;;
12625;SDS011;6378;42.684;23.372;2022-08-19T07:50:20;13.93;;;8.73;;
12625;SDS011;6378;42.684;23.372;2022-08-19T07:53:03;12.93;;;9.02;;
12625;SDS011;6378;42.684;23.372;2022-08-19T07:55:35;12.88;;;8.55;;
12625;SDS011;6378;42.684;23.372;2022-08-19T08:01:08;11.45;;;8.57;;
12625;SDS011;6378;42.684;23.372;2022-08-19T08:04:20;11.27;;;8.05;;
12625;SDS011;6378;42.684;23.372;2022-08-19T08:10:45;10.02;;;8.43;;
12625;SDS011;6378;42.684;23.372;2022-08-19T08:14:06;9.38;;;8.38;;
12625;SDS011;6378;42.684;23.372;2022-08-19T08:23:13;10.57;;;8.18;;
12625;SDS011;6378;42.684;23.372;2022-08-19T08:25:50;11.68;;;8.38;;
12625;SDS011;6378;42.684;23.372;2022-08-19T08:28:35;11.55;;;8.57;;
12625;SDS011;6378;42.684;23.372;2022-08-19T08:31:02;9.20;;;8.15;;
12625;SDS011;6378;42.684;23.372;2022-08-19T08:33:28;8.65;;;7.50;;
12625;SDS011;6378;42.684;23.372;2022-08-19T08:35:57;10.02;;;8.52;;
12625;SDS011;6378;42.684;23.372;2022-08-19T08:38:23;9.10;;;8.10;;
12625;SDS011;6378;42.684;23.372;2022-08-19T08:40:50;8.82;;;7.63;;
12625;SDS011;6378;42.684;23.372;2022-08-19T08:46:39;12.65;;;8.15;;
12625;SDS011;6378;42.684;23.372;2022-08-19T08:55:49;8.93;;;8.13;;
12625;SDS011;6378;42.684;23.372;2022-08-19T08:58:29;8.18;;;7.47;;
12625;SDS011;6378;42.684;23.372;2022-08-19T09:01:08;9.68;;;7.53;;
12625;SDS011;6378;42.684;23.372;2022-08-19T09:03:39;8.73;;;7.82;;
12625;SDS011;6378;42.684;23.372;2022-08-19T09:06:48;8.75;;;7.57;;
12625;SDS011;6378;42.684;23.372;2022-08-19T09:15:39;8.55;;;6.65;;
12625;SDS011;6378;42.684;23.372;2022-08-19T09:18:09;7.57;;;6.75;;
12625;SDS011;6378;42.684;23.372;2022-08-19T09:20:35;7.60;;;6.80;;
12625;SDS011;6378;42.684;23.372;2022-08-19T09:23:15;8.98;;;6.90;;
12625;SDS011;6378;42.684;23.372;2022-08-19T09:25:41;7.53;;;6.82;;
12625;SDS011;6378;42.684;23.372;2022-08-19T09:28:07;10.30;;;6.60;;
12625;SDS011;6378;42.684;23.372;2022-08-19T09:30:34;9.00;;;6.43;;
12625;SDS011;6378;42.684;23.372;2022-08-19T09:33:05;7.00;;;6.28;;
12625;SDS011;6378;42.684;23.372;2022-08-19T09:35:31;8.52;;;6.50;;
12625;SDS011;6378;42.684;23.372;2022-08-19T09:37:58;6.65;;;6.03;;
12625;SDS011;6378;42.684;23.372;2022-08-19T09:40:24;7.82;;;6.50;;
12625;SDS011;6378;42.684;23.372;2022-08-19T09:45:41;7.72;;;6.30;;
12625;SDS011;6378;42.684;23.372;2022-08-19T09:48:07;9.20;;;5.90;;
12625;SDS011;6378;42.684;23.372;2022-08-19T09:50:34;6.78;;;5.25;;
12625;SDS011;6378;42.684;23.372;2022-08-19T09:53:03;6.13;;;5.53;;
12625;SDS011;6378;42.684;23.372;2022-08-19T09:55:31;6.45;;;5.78;;
12625;SDS011;6378;42.684;23.372;2022-08-19T09:57:56;5.45;;;4.95;;
12625;SDS011;6378;42.684;23.372;2022-08-19T10:00:21;6.07;;;5.32;;
12625;SDS011;6378;42.684;23.372;2022-08-19T10:02:47;7.55;;;5.18;;
12625;SDS011;6378;42.684;23.372;2022-08-19T10:05:12;6.85;;;5.05;;
12625;SDS011;6378;42.684;23.372;2022-08-19T10:07:57;6.10;;;5.05;;
12625;SDS011;6378;42.684;23.372;2022-08-19T10:10:22;6.10;;;5.43;;
12625;SDS011;6378;42.684;23.372;2022-08-19T10:12:47;5.97;;;5.43;;
12625;SDS011;6378;42.684;23.372;2022-08-19T10:15:13;6.38;;;5.28;;
12625;SDS011;6378;42.684;23.372;2022-08-19T10:17:39;6.65;;;5.95;;
12625;SDS011;6378;42.684;23.372;2022-08-19T10:20:05;7.25;;;5.97;;
12625;SDS011;6378;42.684;23.372;2022-08-19T10:22:31;9.98;;;5.75;;
12625;SDS011;6378;42.684;23.372;2022-08-19T10:24:57;7.30;;;5.97;;
12625;SDS011;6378;42.684;23.372;2022-08-19T10:27:22;6.32;;;5.47;;
12625;SDS011;6378;42.684;23.372;2022-08-19T10:29:48;6.55;;;5.72;;
12625;SDS011;6378;42.684;23.372;2022-08-19T10:32:16;8.00;;;5.50;;
12625;SDS011;6378;42.684;23.372;2022-08-19T10:34:42;8.07;;;5.93;;
12625;SDS011;6378;42.684;23.372;2022-08-19T10:37:07;6.38;;;5.88;;
12625;SDS011;6378;42.684;23.372;2022-08-19T10:39:35;6.10;;;5.50;;
12625;SDS011;6378;42.684;23.372;2022-08-19T10:42:04;7.80;;;5.70;;
12625;SDS011;6378;42.684;23.372;2022-08-19T10:44:31;10.05;;;5.72;;
12625;SDS011;6378;42.684;23.372;2022-08-19T10:47:00;7.50;;;5.70;;
12625;SDS011;6378;42.684;23.372;2022-08-19T10:49:26;11.05;;;6.18;;
12625;SDS011;6378;42.684;23.372;2022-08-19T10:51:52;7.55;;;5.72;;
12625;SDS011;6378;42.684;23.372;2022-08-19T10:54:36;6.90;;;6.05;;
12625;SDS011;6378;42.684;23.372;2022-08-19T10:57:20;8.43;;;6.35;;
12625;SDS011;6378;42.684;23.372;2022-08-19T10:59:49;5.85;;;5.35;;
12625;SDS011;6378;42.684;23.372;2022-08-19T11:02:14;6.40;;;5.75;;
12625;SDS011;6378;42.684;23.372;2022-08-19T11:04:40;6.47;;;5.25;;
12625;SDS011;6378;42.684;23.372;2022-08-19T11:07:06;7.53;;;5.35;;
12625;SDS011;6378;42.684;23.372;2022-08-19T11:09:36;6.53;;;5.93;;
12625;SDS011;6378;42.684;23.372;2022-08-19T11:12:04;6.53;;;5.97;;
12625;SDS011;6378;42.684;23.372;2022-08-19T11:14:30;7.88;;;6.00;;
12625;SDS011;6378;42.684;23.372;2022-08-19T11:16:57;7.55;;;6.82;;
12625;SDS011;6378;42.684;23.372;2022-08-19T11:19:23;6.70;;;6.10;;
12625;SDS011;6378;42.684;23.372;2022-08-19T11:21:49;8.05;;;5.95;;
12625;SDS011;6378;42.684;23.372;2022-08-19T11:24:17;7.00;;;6.15;;
12625;SDS011;6378;42.684;23.372;2022-08-19T11:26:45;7.25;;;6.30;;
12625;SDS011;6378;42.684;23.372;2022-08-19T11:29:13;8.48;;;6.38;;
12625;SDS011;6378;42.684;23.372;2022-08-19T11:31:43;6.68;;;6.07;;
12625;SDS011;6378;42.684;23.372;2022-08-19T11:34:12;6.07;;;5.57;;
12625;SDS011;6378;42.684;23.372;2022-08-19T11:36:41;6.78;;;6.10;;
12625;SDS011;6378;42.684;23.372;2022-08-19T11:39:09;6.80;;;6.10;;
12625;SDS011;6378;42.684;23.372;2022-08-19T11:41:36;6.72;;;6.00;;
12625;SDS011;6378;42.684;23.372;2022-08-19T11:44:01;7.30;;;6.60;;
12625;SDS011;6378;42.684;23.372;2022-08-19T11:46:29;7.78;;;5.80;;
12625;SDS011;6378;42.684;23.372;2022-08-19T11:48:55;8.10;;;6.70;;
12625;SDS011;6378;42.684;23.372;2022-08-19T11:51:22;9.75;;;6.10;;
12625;SDS011;6378;42.684;23.372;2022-08-19T11:53:52;6.90;;;6.20;;
12625;SDS011;6378;42.684;23.372;2022-08-19T11:56:19;6.57;;;5.95;;
12625;SDS011;6378;42.684;23.372;2022-08-19T11:58:46;7.65;;;6.70;;
12625;SDS011;6378;42.684;23.372;2022-08-19T12:01:12;10.32;;;5.72;;
12625;SDS011;6378;42.684;23.372;2022-08-19T12:03:41;6.97;;;6.15;;
12625;SDS011;6378;42.684;23.372;2022-08-19T12:06:08;7.88;;;7.05;;
12625;SDS011;6378;42.684;23.372;2022-08-19T12:08:37;7.07;;;5.88;;
12625;SDS011;6378;42.684;23.372;2022-08-19T12:11:03;7.10;;;6.40;;
12625;SDS011;6378;42.684;23.372;2022-08-19T12:13:30;6.57;;;5.97;;
12625;SDS011;6378;42.684;23.372;2022-08-19T12:15:56;8.00;;;6.55;;
12625;SDS011;6378;42.684;23.372;2022-08-19T12:18:23;7.10;;;6.50;;
12625;SDS011;6378;42.684;23.372;2022-08-19T12:20:52;7.65;;;6.45;;
12625;SDS011;6378;42.684;23.372;2022-08-19T12:23:19;7.82;;;6.47;;
12625;SDS011;6378;42.684;23.372;2022-08-19T12:25:46;6.97;;;6.32;;
12625;SDS011;6378;42.684;23.372;2022-08-19T12:28:17;6.90;;;6.28;;
12625;SDS011;6378;42.684;23.372;2022-08-19T12:30:47;6.60;;;6.00;;
12625;SDS011;6378;42.684;23.372;2022-08-19T12:33:15;9.20;;;7.00;;
12625;SDS011;6378;42.684;23.372;2022-08-19T12:35:41;6.95;;;6.25;;
12625;SDS011;6378;42.684;23.372;2022-08-19T12:38:08;7.60;;;6.35;;
12625;SDS011;6378;42.684;23.372;2022-08-19T12:40:34;7.82;;;6.13;;
12625;SDS011;6378;42.684;23.372;2022-08-19T12:43:00;8.88;;;6.68;;
12625;SDS011;6378;42.684;23.372;2022-08-19T12:45:25;7.70;;;6.57;;
12625;SDS011;6378;42.684;23.372;2022-08-19T12:47:51;6.97;;;6.32;;
12625;SDS011;6378;42.684;23.372;2022-08-19T12:50:18;10.55;;;6.15;;
12625;SDS011;6378;42.684;23.372;2022-08-19T12:52:44;7.07;;;6.38;;
12625;SDS011;6378;42.684;23.372;2022-08-19T12:55:10;8.20;;;6.13;;
12625;SDS011;6378;42.684;23.372;2022-08-19T12:57:36;6.40;;;5.75;;
12625;SDS011;6378;42.684;23.372;2022-08-19T13:00:10;7.03;;;6.43;;
12625;SDS011;6378;42.684;23.372;2022-08-19T13:02:46;6.95;;;6.25;;
12625;SDS011;6378;42.684;23.372;2022-08-19T13:05:20;7.13;;;6.43;;
12625;SDS011;6378;42.684;23.372;2022-08-19T13:07:48;6.88;;;6.28;;
12625;SDS011;6378;42.684;23.372;2022-08-19T13:10:16;7.75;;;6.90;;
12625;SDS011;6378;42.684;23.372;2022-08-19T13:12:45;7.00;;;6.30;;
12625;SDS011;6378;42.684;23.372;2022-08-19T13:15:12;7.38;;;6.25;;
12625;SDS011;6378;42.684;23.372;2022-08-19T13:17:39;7.47;;;6.63;;
12625;SDS011;6378;42.684;23.372;2022-08-19T13:20:05;8.93;;;7.00;;
12625;SDS011;6378;42.684;23.372;2022-08-19T13:22:33;7.80;;;6.57;;
12625;SDS011;6378;42.684;23.372;2022-08-19T13:25:00;7.07;;;6.57;;
12625;SDS011;6378;42.684;23.372;2022-08-19T13:27:26;6.93;;;6.30;;
12625;SDS011;6378;42.684;23.372;2022-08-19T13:29:53;10.75;;;7.10;;
12625;SDS011;6378;42.684;23.372;2022-08-19T13:32:37;7.80;;;6.85;;
12625;SDS011;6378;42.684;23.372;2022-08-19T13:35:21;8.80;;;7.00;;
12625;SDS011;6378;42.684;23.372;2022-08-19T13:37:47;9.70;;;7.15;;
12625;SDS011;6378;42.684;23.372;2022-08-19T13:40:17;7.88;;;7.22;;
12625;SDS011;6378;42.684;23.372;2022-08-19T13:42:47;9.27;;;7.03;;
12625;SDS011;6378;42.684;23.372;2022-08-19T13:45:15;7.40;;;6.70;;
12625;SDS011;6378;42.684;23.372;2022-08-19T13:47:48;7.70;;;6.95;;
12625;SDS011;6378;42.684;23.372;2022-08-19T13:50:19;8.25;;;7.05;;
12625;SDS011;6378;42.684;23.372;2022-08-19T13:52:46;7.70;;;6.85;;
12625;SDS011;6378;42.684;23.372;2022-08-19T13:55:12;8.30;;;6.93;;
12625;SDS011;6378;42.684;23.372;2022-08-19T13:57:38;7.55;;;6.68;;
12625;SDS011;6378;42.684;23.372;2022-08-19T14:00:08;7.68;;;6.97;;
12625;SDS011;6378;42.684;23.372;2022-08-19T14:02:36;9.15;;;6.68;;
12625;SDS011;6378;42.684;23.372;2022-08-19T14:05:03;7.97;;;6.38;;
12625;SDS011;6378;42.684;23.372;2022-08-19T14:07:30;7.18;;;6.50;;
12625;SDS011;6378;42.684;23.372;2022-08-19T14:09:56;7.90;;;7.05;;
12625;SDS011;6378;42.684;23.372;2022-08-19T14:12:22;7.10;;;6.43;;
12625;SDS011;6378;42.684;23.372;2022-08-19T14:14:48;7.88;;;7.15;;
12625;SDS011;6378;42.684;23.372;2022-08-19T14:17:14;7.85;;;7.05;;
12625;SDS011;6378;42.684;23.372;2022-08-19T14:19:40;8.48;;;6.78;;
12625;SDS011;6378;42.684;23.372;2022-08-19T14:22:06;8.65;;;6.82;;
12625;SDS011;6378;42.684;23.372;2022-08-19T14:24:32;7.55;;;6.90;;
12625;SDS011;6378;42.684;23.372;2022-08-19T14:26:58;8.73;;;7.05;;
12625;SDS011;6378;42.684;23.372;2022-08-19T14:29:24;7.45;;;6.75;;
12625;SDS011;6378;42.684;23.372;2022-08-19T14:31:50;7.63;;;6.88;;
12625;SDS011;6378;42.684;23.372;2022-08-19T14:34:15;10.50;;;7.20;;
12625;SDS011;6378;42.684;23.372;2022-08-19T14:36:41;9.07;;;6.43;;
12625;SDS011;6378;42.684;23.372;2022-08-19T14:39:07;8.48;;;7.03;;
12625;SDS011;6378;42.684;23.372;2022-08-19T14:41:34;7.45;;;6.60;;
12625;SDS011;6378;42.684;23.372;2022-08-19T14:44:00;7.53;;;6.80;;
12625;SDS011;6378;42.684;23.372;2022-08-19T14:46:27;7.82;;;6.35;;
12625;SDS011;6378;42.684;23.372;2022-08-19T14:48:53;8.15;;;6.50;;
12625;SDS011;6378;42.684;23.372;2022-08-19T14:51:23;9.23;;;7.50;;
12625;SDS011;6378;42.684;23.372;2022-08-19T14:53:50;8.98;;;6.28;;
12625;SDS011;6378;42.684;23.372;2022-08-19T14:56:17;7.88;;;7.05;;
12625;SDS011;6378;42.684;23.372;2022-08-19T14:58:45;7.85;;;6.68;;
12625;SDS011;6378;42.684;23.372;2022-08-19T15:01:10;7.63;;;6.70;;
12625;SDS011;6378;42.684;23.372;2022-08-19T15:03:37;6.82;;;6.22;;
12625;SDS011;6378;42.684;23.372;2022-08-19T15:06:04;7.82;;;6.60;;
12625;SDS011;6378;42.684;23.372;2022-08-19T15:08:31;10.18;;;6.85;;
12625;SDS011;6378;42.684;23.372;2022-08-19T15:10:59;7.85;;;7.07;;
12625;SDS011;6378;42.684;23.372;2022-08-19T15:13:25;7.30;;;6.70;;
12625;SDS011;6378;42.684;23.372;2022-08-19T15:15:52;7.60;;;6.85;;
12625;SDS011;6378;42.684;23.372;2022-08-19T15:18:19;8.50;;;7.57;;
12625;SDS011;6378;42.684;23.372;2022-08-19T15:20:45;10.32;;;6.68;;
12625;SDS011;6378;42.684;23.372;2022-08-19T15:23:13;8.05;;;6.93;;
12625;SDS011;6378;42.684;23.372;2022-08-19T15:25:39;8.88;;;6.13;;
12625;SDS011;6378;42.684;23.372;2022-08-19T15:28:06;8.20;;;7.00;;
12625;SDS011;6378;42.684;23.372;2022-08-19T15:30:32;7.00;;;6.30;;
12625;SDS011;6378;42.684;23.372;2022-08-19T15:32:58;7.75;;;7.03;;
12625;SDS011;6378;42.684;23.372;2022-08-19T15:35:24;7.18;;;6.43;;